createdAt,value
2019-06-26T00:01:16.368Z,6.70
2019-06-26T00:04:03.955Z,6.40
2019-06-26T00:06:51.753Z,6.63
2019-06-26T00:09:39.079Z,6.20
2019-06-26T00:12:26.131Z,7.80
2019-06-26T00:15:13.606Z,7.43
2019-06-26T00:18:01.536Z,6.73
2019-06-26T00:20:49.188Z,7.20
2019-06-26T00:23:36.247Z,7.93
2019-06-26T00:26:23.711Z,7.53
2019-06-26T00:29:11.489Z,7.23
2019-06-26T00:31:58.977Z,7.23
2019-06-26T00:34:46.394Z,6.37
2019-06-26T00:37:34.086Z,6.30
2019-06-26T00:40:21.444Z,6.17
2019-06-26T00:43:08.855Z,5.57
2019-06-26T00:45:56.129Z,6.13
2019-06-26T00:48:43.175Z,6.53
2019-06-26T00:51:30.845Z,6.70
2019-06-26T00:54:18.930Z,6.33
2019-06-26T00:57:06.054Z,6.80
2019-06-26T00:59:53.184Z,6.10
2019-06-26T01:02:40.692Z,5.90
2019-06-26T01:05:28.352Z,8.10
2019-06-26T01:08:16.203Z,7.27
2019-06-26T01:11:03.332Z,6.80
2019-06-26T01:13:58.141Z,6.70
2019-06-26T01:16:40.383Z,6.67
2019-06-26T01:19:27.771Z,6.63
2019-06-26T01:22:15.166Z,6.17
2019-06-26T01:25:02.688Z,6.17
2019-06-26T01:27:50.095Z,6.10
2019-06-26T01:30:37.720Z,6.90
2019-06-26T01:33:25.275Z,6.10
2019-06-26T01:36:12.417Z,7.40
2019-06-26T01:38:59.562Z,6.83
2019-06-26T01:41:47.098Z,6.57
2019-06-26T01:44:34.852Z,7.00
2019-06-26T01:47:22.376Z,6.47
2019-06-26T01:50:09.513Z,6.43
2019-06-26T01:52:57.247Z,6.50
2019-06-26T01:55:44.877Z,6.70
2019-06-26T01:58:33.082Z,6.87
2019-06-26T02:01:20.408Z,6.77
2019-06-26T02:04:07.432Z,6.73
2019-06-26T02:06:54.733Z,6.43
2019-06-26T02:09:42.195Z,6.97
2019-06-26T02:12:29.895Z,6.17
2019-06-26T02:15:17.468Z,6.60
2019-06-26T02:18:06.963Z,7.73
2019-06-26T02:20:54.465Z,7.40
2019-06-26T02:23:42.229Z,8.20
2019-06-26T02:26:29.605Z,7.47
2019-06-26T02:29:17.654Z,7.70
2019-06-26T02:32:05.412Z,8.17
2019-06-26T02:34:52.500Z,8.30
2019-06-26T02:37:40.276Z,8.70
2019-06-26T02:40:28.121Z,8.10
2019-06-26T02:43:15.845Z,8.37
2019-06-26T02:46:02.951Z,8.33
2019-06-26T02:48:51.176Z,8.50
2019-06-26T02:51:38.736Z,9.13
2019-06-26T02:54:26.125Z,8.63
2019-06-26T02:57:13.704Z,9.07
2019-06-26T03:00:01.462Z,9.13
2019-06-26T03:02:49.395Z,8.57
2019-06-26T03:05:36.559Z,8.70
2019-06-26T03:08:24.269Z,8.40
2019-06-26T03:11:12.128Z,8.90
2019-06-26T03:13:59.658Z,9.47
2019-06-26T03:16:46.965Z,9.00
2019-06-26T03:19:34.357Z,10.23
2019-06-26T03:22:21.465Z,9.93
2019-06-26T03:25:10.779Z,9.60
2019-06-26T03:27:58.433Z,9.20
2019-06-26T03:30:46.262Z,10.47
2019-06-26T03:33:33.662Z,8.87
2019-06-26T03:36:21.068Z,9.40
2019-06-26T03:39:09.045Z,9.00
2019-06-26T03:41:56.194Z,8.60
2019-06-26T03:44:43.430Z,8.77
2019-06-26T03:47:31.149Z,9.13
2019-06-26T03:50:20.151Z,9.37
2019-06-26T03:53:07.702Z,8.90
2019-06-26T03:55:55.080Z,9.17
2019-06-26T03:58:42.149Z,8.60
2019-06-26T04:01:29.890Z,8.13
2019-06-26T04:04:17.446Z,7.80
2019-06-26T04:07:05.023Z,7.57
2019-06-26T04:09:52.113Z,8.10
2019-06-26T04:12:39.679Z,7.40
2019-06-26T04:15:40.894Z,7.80
2019-06-26T04:18:16.975Z,6.90
2019-06-26T04:21:04.220Z,8.07
2019-06-26T04:23:51.670Z,7.10
2019-06-26T04:26:41.428Z,6.67
2019-06-26T04:29:29.031Z,7.10
2019-06-26T04:32:16.611Z,7.00
2019-06-26T04:35:04.362Z,6.87
2019-06-26T04:37:51.807Z,6.87
2019-06-26T04:40:39.147Z,6.57
2019-06-26T04:43:26.534Z,6.67
2019-06-26T04:46:13.747Z,7.07
2019-06-26T04:49:00.974Z,6.97
2019-06-26T04:51:48.284Z,6.40
2019-06-26T04:54:35.719Z,5.97
2019-06-26T04:57:29.891Z,7.40
2019-06-26T05:00:20.893Z,6.13
2019-06-26T05:03:07.459Z,5.97
2019-06-26T05:05:55.087Z,5.77
2019-06-26T05:08:42.459Z,5.90
2019-06-26T05:11:30.294Z,6.37
2019-06-26T05:14:17.535Z,5.50
2019-06-26T05:17:04.988Z,5.57
2019-06-26T05:19:52.399Z,6.37
2019-06-26T05:22:41.300Z,5.90
2019-06-26T05:25:28.456Z,5.37
2019-06-26T05:28:15.750Z,5.93
2019-06-26T05:31:03.544Z,5.20
2019-06-26T05:33:50.853Z,5.63
2019-06-26T05:36:38.814Z,4.80
2019-06-26T05:39:26.144Z,4.97
2019-06-26T05:42:13.684Z,4.50
2019-06-26T05:45:01.125Z,4.87
2019-06-26T05:47:48.215Z,4.67
2019-06-26T05:50:35.947Z,5.33
2019-06-26T05:53:23.935Z,5.10
2019-06-26T05:56:11.589Z,4.30
2019-06-26T05:58:59.406Z,4.70
2019-06-26T06:01:47.111Z,4.77
2019-06-26T06:04:34.898Z,4.60
2019-06-26T06:07:22.534Z,4.70
2019-06-26T06:10:10.424Z,5.10
2019-06-26T06:12:58.166Z,4.77
2019-06-26T06:15:45.253Z,4.53
2019-06-26T06:18:32.614Z,4.73
2019-06-26T06:21:20.091Z,5.00
2019-06-26T06:24:07.887Z,4.40
2019-06-26T06:26:55.559Z,4.97
2019-06-26T06:29:42.881Z,4.33
2019-06-26T06:32:30.351Z,5.07
2019-06-26T06:35:18.088Z,5.00
2019-06-26T06:38:07.035Z,5.30
2019-06-26T06:40:54.391Z,5.13
2019-06-26T06:43:41.867Z,4.70
2019-06-26T06:46:29.278Z,4.83
2019-06-26T06:49:16.249Z,4.23
2019-06-26T06:52:03.634Z,4.57
2019-06-26T06:54:51.078Z,5.27
2019-06-26T06:57:38.720Z,4.47
2019-06-26T07:00:26.559Z,5.13
2019-06-26T07:03:14.570Z,5.67
2019-06-26T07:06:02.012Z,4.87
2019-06-26T07:08:49.660Z,4.40
2019-06-26T07:11:37.079Z,4.97
2019-06-26T07:14:24.556Z,5.10
2019-06-26T07:17:20.367Z,5.30
2019-06-26T07:20:01.007Z,5.10
2019-06-26T07:22:48.510Z,4.90
2019-06-26T07:25:35.993Z,4.57
2019-06-26T07:28:23.311Z,5.00
2019-06-26T07:31:11.407Z,5.28
2019-06-26T07:33:59.059Z,5.57
2019-06-26T07:36:46.421Z,5.47
2019-06-26T07:39:34.075Z,5.63
2019-06-26T07:42:21.806Z,4.90
2019-06-26T07:45:10.288Z,4.95
2019-06-26T07:47:57.677Z,4.93
2019-06-26T07:50:45.008Z,5.30
2019-06-26T07:53:32.711Z,4.67
2019-06-26T07:56:19.932Z,5.10
2019-06-26T07:59:07.107Z,5.10
2019-06-26T08:01:54.489Z,5.17
2019-06-26T08:04:41.854Z,5.57
2019-06-26T08:07:30.016Z,5.03
2019-06-26T08:10:17.349Z,5.03
2019-06-26T08:13:05.148Z,4.93
2019-06-26T08:15:55.046Z,6.00
2019-06-26T08:18:43.111Z,5.80
2019-06-26T08:21:30.356Z,5.20
2019-06-26T08:24:17.890Z,6.20
2019-06-26T08:27:05.581Z,6.47
2019-06-26T08:29:53.205Z,6.43
2019-06-26T08:32:40.611Z,6.37
2019-06-26T08:35:28.257Z,5.50
2019-06-26T08:38:15.980Z,5.77
2019-06-26T08:41:03.152Z,5.83
2019-06-26T08:43:50.555Z,6.17
2019-06-26T08:46:38.179Z,6.17
2019-06-26T08:49:26.531Z,5.97
2019-06-26T14:07:35.184Z,7.70
2019-06-26T14:10:22.700Z,7.30
2019-06-26T14:13:09.915Z,7.53
2019-06-26T14:15:57.510Z,6.10
2019-06-26T14:18:45.083Z,7.17
2019-06-26T14:21:32.551Z,6.40
2019-06-26T14:24:20.227Z,6.87
2019-06-26T14:27:07.500Z,6.30
2019-06-26T14:29:54.913Z,6.30
2019-06-26T14:32:43.428Z,6.30
2019-06-26T14:35:30.552Z,6.53
2019-06-26T14:38:17.793Z,5.97
2019-06-26T14:41:07.683Z,6.43
2019-06-26T14:43:55.273Z,6.93
2019-06-26T14:46:44.145Z,6.37
2019-06-26T14:49:33.572Z,6.45
2019-06-26T14:52:21.541Z,6.80
2019-06-26T14:55:09.394Z,6.63
2019-06-26T14:57:57.270Z,5.95
2019-06-26T15:00:44.461Z,6.10
2019-06-26T15:03:31.968Z,6.67
2019-06-26T15:06:19.674Z,6.33
2019-06-26T15:09:29.267Z,5.90
2019-06-26T15:12:16.901Z,5.62
2019-06-26T15:15:21.703Z,5.90
2019-06-26T15:21:19.188Z,7.28
2019-06-26T15:24:06.646Z,7.83
2019-06-26T15:26:54.349Z,6.90
2019-06-26T15:29:41.955Z,6.35
2019-06-26T15:32:29.824Z,6.47
2019-06-26T15:35:17.805Z,6.08
2019-06-26T15:38:07.400Z,5.30
2019-06-26T15:40:55.154Z,5.77
2019-06-26T15:43:43.367Z,6.37
2019-06-26T15:46:30.710Z,5.95
2019-06-26T15:49:18.148Z,5.50
2019-06-26T15:52:15.069Z,6.70
2019-06-26T15:54:56.101Z,6.10
2019-06-26T15:57:43.394Z,6.55
2019-06-26T16:00:32.164Z,5.80
2019-06-26T16:03:19.986Z,5.75
2019-06-26T16:06:07.363Z,5.62
2019-06-26T16:08:54.531Z,5.27
2019-06-26T16:11:43.384Z,6.10
2019-06-26T16:14:32.427Z,6.43
2019-06-26T16:17:30.125Z,6.33
2019-06-26T16:20:29.605Z,6.33
2019-06-26T16:23:22.987Z,6.27
2019-06-26T16:26:10.159Z,5.72
2019-06-26T16:29:00.589Z,6.22
2019-06-26T16:31:58.005Z,6.42
2019-06-26T16:35:05.276Z,6.12
2019-06-26T16:37:59.284Z,6.60
2019-06-26T16:40:52.510Z,6.00
2019-06-26T16:43:41.317Z,6.42
2019-06-26T16:46:35.596Z,5.73
2019-06-26T16:49:24.967Z,5.30
2019-06-26T16:52:15.255Z,7.00
2019-06-26T16:55:05.188Z,6.00
2019-06-26T16:57:54.555Z,6.47
2019-06-26T17:00:42.927Z,6.13
2019-06-26T17:03:30.395Z,5.40
2019-06-26T17:06:20.066Z,6.20
2019-06-26T17:09:10.201Z,6.25
2019-06-26T17:11:58.034Z,6.40
2019-06-26T17:14:45.983Z,6.40
2019-06-26T17:17:33.707Z,6.73
2019-06-26T17:20:21.259Z,5.87
2019-06-26T17:23:09.091Z,6.00
2019-06-26T17:25:56.667Z,5.43
2019-06-26T17:28:44.338Z,5.60
2019-06-26T17:31:31.865Z,6.33
2019-06-26T17:34:19.069Z,6.10
2019-06-26T17:37:06.523Z,6.22
2019-06-26T17:39:54.090Z,6.47
2019-06-26T17:42:41.268Z,6.43
2019-06-26T17:45:30.808Z,6.55
2019-06-26T17:48:18.861Z,5.70
2019-06-26T17:51:07.399Z,6.10
2019-06-26T17:53:59.908Z,6.03
2019-06-26T17:56:53.257Z,6.97
2019-06-26T17:59:43.135Z,5.83
2019-06-26T18:02:31.021Z,5.92
2019-06-26T18:05:18.467Z,6.37
2019-06-26T18:08:11.315Z,5.60
2019-06-26T18:10:58.705Z,5.63
2019-06-26T18:13:47.811Z,6.23
2019-06-26T18:16:36.966Z,6.47
2019-06-26T18:19:26.119Z,6.60
2019-06-26T18:22:13.701Z,5.83
2019-06-26T18:25:01.417Z,6.70
2019-06-26T18:27:49.099Z,6.60
2019-06-26T18:30:48.422Z,6.77
2019-06-26T18:33:36.061Z,6.03
2019-06-26T18:36:23.866Z,6.70
2019-06-26T18:39:10.924Z,6.40
2019-06-26T18:42:01.485Z,6.67
2019-06-26T18:44:50.717Z,6.23
2019-06-26T18:47:38.221Z,6.37
2019-06-26T18:50:33.568Z,6.90
2019-06-26T18:53:20.981Z,7.17
2019-06-26T18:56:10.688Z,6.53
2019-06-26T18:58:59.211Z,6.00
2019-06-26T19:01:46.936Z,6.40
2019-06-26T19:04:34.885Z,6.80
2019-06-26T19:07:25.104Z,7.17
2019-06-26T19:10:13.047Z,6.40
2019-06-26T19:13:03.650Z,6.50
2019-06-26T19:15:57.158Z,6.90
2019-06-26T19:18:51.174Z,6.73
2019-06-26T19:21:38.929Z,6.77
2019-06-26T19:24:26.865Z,6.70
2019-06-26T19:27:14.433Z,6.50
2019-06-26T19:30:02.319Z,5.53
2019-06-26T19:32:50.375Z,7.53
2019-06-26T19:35:38.009Z,6.43
2019-06-26T19:38:25.650Z,6.87
2019-06-26T19:41:13.482Z,6.00
2019-06-26T19:44:00.988Z,7.20
2019-06-26T19:46:48.685Z,6.73
2019-06-26T19:49:37.285Z,6.50
2019-06-26T19:52:24.782Z,6.80
2019-06-26T19:55:12.825Z,6.20
2019-06-26T19:58:00.173Z,6.43
2019-06-26T20:00:48.408Z,6.80
2019-06-26T20:03:35.768Z,6.50
2019-06-26T20:06:23.421Z,6.77
2019-06-26T20:09:11.210Z,6.87
2019-06-26T20:12:12.426Z,6.30
2019-06-26T20:15:06.705Z,6.27
2019-06-26T20:17:58.725Z,6.73
2019-06-26T20:20:45.982Z,6.50
2019-06-26T20:23:36.324Z,7.10
2019-06-26T20:26:23.800Z,6.33
2019-06-26T20:29:11.565Z,6.20
2019-06-26T20:31:58.934Z,6.30
2019-06-26T20:34:51.355Z,6.17
2019-06-26T20:37:39.284Z,5.93
2019-06-26T20:40:29.821Z,6.53
2019-06-26T20:43:21.449Z,6.93
2019-06-26T20:46:08.764Z,6.80
2019-06-26T20:49:05.372Z,6.43
2019-06-26T20:51:54.427Z,7.10
2019-06-26T20:54:42.050Z,6.83
2019-06-26T20:57:30.412Z,7.33
2019-06-26T21:00:21.385Z,7.50
2019-06-26T21:03:07.116Z,7.20
2019-06-26T21:05:54.405Z,7.13
2019-06-26T21:08:41.808Z,8.60
2019-06-26T21:11:29.663Z,8.43
2019-06-26T21:14:16.928Z,8.40
2019-06-26T21:17:04.493Z,8.00
2019-06-26T21:20:01.034Z,8.60
2019-06-26T21:22:48.757Z,7.20
2019-06-26T21:25:36.372Z,8.17
2019-06-26T21:28:24.100Z,7.90
2019-06-26T21:31:11.859Z,8.83
2019-06-26T21:34:00.443Z,8.90
2019-06-26T21:36:47.824Z,8.07
2019-06-26T21:39:35.596Z,8.57
2019-06-26T21:42:23.309Z,9.33
2019-06-26T21:45:11.145Z,9.27
2019-06-26T21:47:58.835Z,7.60
2019-06-26T21:50:46.321Z,8.03
2019-06-26T21:53:33.951Z,8.83
2019-06-26T21:56:21.591Z,8.67
2019-06-26T21:59:09.157Z,8.90
2019-06-26T22:01:56.577Z,9.20
2019-06-26T22:04:44.300Z,8.60
2019-06-26T22:07:31.692Z,7.90
2019-06-26T22:10:19.421Z,7.90
2019-06-26T22:13:07.052Z,8.27
2019-06-26T22:15:55.450Z,7.83
2019-06-26T22:18:42.802Z,8.00
2019-06-26T22:21:30.492Z,8.07
2019-06-26T22:24:18.186Z,8.27
2019-06-26T22:27:05.394Z,7.63
2019-06-26T22:29:53.294Z,8.23
2019-06-26T22:32:46.924Z,8.70
2019-06-26T22:35:34.248Z,7.80
2019-06-26T22:38:23.491Z,8.70
2019-06-26T22:41:11.207Z,7.77
2019-06-26T22:44:08.151Z,8.30
2019-06-26T22:46:56.201Z,7.97
2019-06-26T22:49:49.824Z,8.10
2019-06-26T22:52:37.453Z,8.33
2019-06-26T22:55:25.114Z,9.07
2019-06-26T22:58:23.229Z,7.90
2019-06-26T23:01:10.511Z,7.93
2019-06-26T23:03:57.977Z,8.30
2019-06-26T23:06:46.021Z,8.17
2019-06-26T23:09:33.115Z,8.47
2019-06-26T23:12:20.589Z,8.53
2019-06-26T23:15:08.518Z,9.03
2019-06-26T23:17:56.533Z,8.33
2019-06-26T23:20:44.163Z,8.30
2019-06-26T23:23:32.153Z,8.23
2019-06-26T23:26:23.872Z,8.13
2019-06-26T23:29:08.823Z,7.97
2019-06-26T23:32:08.597Z,7.67
2019-06-26T23:34:58.691Z,7.70
2019-06-26T23:37:56.665Z,8.03
2019-06-26T23:40:47.376Z,8.17
2019-06-26T23:43:35.038Z,7.90
2019-06-26T23:46:22.369Z,7.53
2019-06-26T23:49:12.953Z,6.97
2019-06-26T23:52:02.097Z,7.27
2019-06-26T23:54:49.839Z,7.77
2019-06-26T23:57:44.393Z,7.47
